KRST/RST METAR and TAF weather

Enter ICAO airport designator
Station Type Date Time Source
KRST METAR 2022/01/28 05:54 UTC NOAA

KRST 280554Z AUTO 33009KT 10SM CLR M15/M21 A3035 RMK AO2 SLP304 T11501206 11072 21150 410111150 53012


Station Type Date Time Source
KRST Decoded METAR 2022/01/28 05:54 UTC NOAA

ROCHESTER INTERNATIONAL AIRPORT , MN, United States (KRST) 43-54N 092-30W 403M
Jan 28, 2022 - 12:54 AM EST / 2022.01.28 0554 UTC
Wind: from the NNW (330 degrees) at 10 MPH (9 KT):0
Visibility: 10 mile(s):0
Sky conditions: clear
Temperature: 5.0 F (-15.0 C)
Windchill: -9 F (-23 C):2
Dew Point: -5.1 F (-20.6 C)
Relative Humidity: 62%
Pressure (altimeter): 30.35 in. Hg (1027 hPa)
Pressure tendency: 0.04 inches (1.2 hPa) higher than three hours ago
ob: KRST 280554Z AUTO 33009KT 10SM CLR M15/M21 A3035 RMK AO2 SLP304 T11501206 11072 21150 410111150 53012
cycle: 6

Station Type Date Time Source
KRST TAF 2022/01/28 06:27 UTC NOAA

TAF KRST 280525Z 2806/2906 33008KT P6SM SCT250
FM281700 25006KT P6SM SCT250

Example: see airport list